sensor_id;sensor_type;location;lat;lon;timestamp;pressure;altitude;pressure_sealevel;temperature;humidity
34921;BME280;21128;50.016;20.002;2022-08-14T00:00:14;98483.95;;;18.67;100.00
34921;BME280;21128;50.016;20.002;2022-08-14T00:03:01;98472.45;;;18.66;100.00
34921;BME280;21128;50.016;20.002;2022-08-14T00:05:28;98472.64;;;18.65;100.00
34921;BME280;21128;50.016;20.002;2022-08-14T00:07:55;98468.34;;;18.64;100.00
34921;BME280;21128;50.016;20.002;2022-08-14T00:10:22;98468.55;;;18.62;100.00
34921;BME280;21128;50.016;20.002;2022-08-14T00:12:51;98474.89;;;18.61;100.00
34921;BME280;21128;50.016;20.002;2022-08-14T00:17:46;98466.91;;;18.61;100.00
34921;BME280;21128;50.016;20.002;2022-08-14T00:20:25;98472.84;;;18.63;100.00
34921;BME280;21128;50.016;20.002;2022-08-14T00:22:53;98465.07;;;18.62;100.00
34921;BME280;21128;50.016;20.002;2022-08-14T00:25:19;98472.03;;;18.63;100.00
34921;BME280;21128;50.016;20.002;2022-08-14T00:27:47;98465.89;;;18.62;100.00
34921;BME280;21128;50.016;20.002;2022-08-14T00:30:14;98456.06;;;18.63;100.00
34921;BME280;21128;50.016;20.002;2022-08-14T00:32:42;98457.91;;;18.62;100.00
34921;BME280;21128;50.016;20.002;2022-08-14T00:35:10;98457.09;;;18.62;100.00
34921;BME280;21128;50.016;20.002;2022-08-14T00:37:39;98453.00;;;18.59;100.00
34921;BME280;21128;50.016;20.002;2022-08-14T00:40:09;98449.52;;;18.59;100.00
34921;BME280;21128;50.016;20.002;2022-08-14T00:42:36;98449.70;;;18.57;100.00
34921;BME280;21128;50.016;20.002;2022-08-14T00:45:05;98450.11;;;18.54;100.00
34921;BME280;21128;50.016;20.002;2022-08-14T00:47:33;98449.07;;;18.48;100.00
34921;BME280;21128;50.016;20.002;2022-08-14T00:50:03;98446.01;;;18.45;100.00
34921;BME280;21128;50.016;20.002;2022-08-14T00:52:45;98443.77;;;18.42;100.00
34921;BME280;21128;50.016;20.002;2022-08-14T00:55:12;98445.78;;;18.40;100.00
34921;BME280;21128;50.016;20.002;2022-08-14T00:57:47;98447.02;;;18.37;100.00
34921;BME280;21128;50.016;20.002;2022-08-14T01:00:39;98436.96;;;18.33;100.00
34921;BME280;21128;50.016;20.002;2022-08-14T01:03:07;98441.47;;;18.32;100.00
34921;BME280;21128;50.016;20.002;2022-08-14T01:05:34;98437.17;;;18.31;100.00
34921;BME280;21128;50.016;20.002;2022-08-14T01:08:01;98441.67;;;18.31;100.00
34921;BME280;21128;50.016;20.002;2022-08-14T01:10:29;98437.38;;;18.29;100.00
34921;BME280;21128;50.016;20.002;2022-08-14T01:13:38;98434.72;;;18.29;100.00
34921;BME280;21128;50.016;20.002;2022-08-14T01:16:09;98434.72;;;18.29;100.00
34921;BME280;21128;50.016;20.002;2022-08-14T01:18:36;98437.38;;;18.29;100.00
34921;BME280;21128;50.016;20.002;2022-08-14T01:23:57;98424.08;;;18.29;100.00
34921;BME280;21128;50.016;20.002;2022-08-14T01:26:25;98426.73;;;18.29;100.00
34921;BME280;21128;50.016;20.002;2022-08-14T01:28:54;98425.71;;;18.31;100.00
34921;BME280;21128;50.016;20.002;2022-08-14T01:31:23;98428.38;;;18.31;100.00
34921;BME280;21128;50.016;20.002;2022-08-14T01:33:52;98421.21;;;18.31;100.00
34921;BME280;21128;50.016;20.002;2022-08-14T01:36:24;98424.69;;;18.32;100.00
34921;BME280;21128;50.016;20.002;2022-08-14T01:38:53;98418.55;;;18.31;100.00
34921;BME280;21128;50.016;20.002;2022-08-14T01:41:26;98433.48;;;18.32;100.00
34921;BME280;21128;50.016;20.002;2022-08-14T01:43:55;98433.48;;;18.32;100.00
34921;BME280;21128;50.016;20.002;2022-08-14T01:46:32;98426.33;;;18.33;100.00
34921;BME280;21128;50.016;20.002;2022-08-14T01:49:09;98426.53;;;18.31;100.00
34921;BME280;21128;50.016;20.002;2022-08-14T01:51:37;98422.03;;;18.32;100.00
34921;BME280;21128;50.016;20.002;2022-08-14T01:54:14;98427.34;;;18.32;100.00
34921;BME280;21128;50.016;20.002;2022-08-14T01:56:41;98424.69;;;18.32;100.00
34921;BME280;21128;50.016;20.002;2022-08-14T02:01:52;98422.67;;;18.34;100.00
34921;BME280;21128;50.016;20.002;2022-08-14T02:04:20;98426.15;;;18.34;100.00
34921;BME280;21128;50.016;20.002;2022-08-14T02:06:48;98425.13;;;18.35;100.00
34921;BME280;21128;50.016;20.002;2022-08-14T02:09:17;98411.00;;;18.35;100.00
34921;BME280;21128;50.016;20.002;2022-08-14T02:11:45;98413.45;;;18.36;100.00
34921;BME280;21128;50.016;20.002;2022-08-14T02:14:12;98410.80;;;18.36;100.00
34921;BME280;21128;50.016;20.002;2022-08-14T02:16:42;98411.00;;;18.35;100.00
34921;BME280;21128;50.016;20.002;2022-08-14T02:19:22;98407.32;;;18.36;100.00
34921;BME280;21128;50.016;20.002;2022-08-14T02:21:51;98404.87;;;18.34;100.00
34921;BME280;21128;50.016;20.002;2022-08-14T02:24:22;98405.89;;;18.33;100.00
34921;BME280;21128;50.016;20.002;2022-08-14T02:26:51;98408.55;;;18.33;100.00
34921;BME280;21128;50.016;20.002;2022-08-14T02:29:20;98411.39;;;18.32;100.00
34921;BME280;21128;50.016;20.002;2022-08-14T02:31:50;98405.46;;;18.29;100.00
34921;BME280;21128;50.016;20.002;2022-08-14T02:34:23;98405.46;;;18.29;100.00
34921;BME280;21128;50.016;20.002;2022-08-14T02:36:58;98401.17;;;18.28;100.00
34921;BME280;21128;50.016;20.002;2022-08-14T02:39:31;98399.53;;;18.27;100.00
34921;BME280;21128;50.016;20.002;2022-08-14T02:41:59;98401.17;;;18.28;100.00
34921;BME280;21128;50.016;20.002;2022-08-14T02:44:26;98403.83;;;18.28;100.00
34921;BME280;21128;50.016;20.002;2022-08-14T02:46:53;98401.17;;;18.28;100.00
34921;BME280;21128;50.016;20.002;2022-08-14T02:49:24;98397.48;;;18.29;100.00
34921;BME280;21128;50.016;20.002;2022-08-14T02:52:01;98390.53;;;18.28;100.00
34921;BME280;21128;50.016;20.002;2022-08-14T02:54:33;98399.53;;;18.27;100.00
34921;BME280;21128;50.016;20.002;2022-08-14T02:57:06;98398.72;;;18.27;100.00
34921;BME280;21128;50.016;20.002;2022-08-14T02:59:40;98399.53;;;18.27;100.00
34921;BME280;21128;50.016;20.002;2022-08-14T03:02:14;98397.08;;;18.26;100.00
34921;BME280;21128;50.016;20.002;2022-08-14T03:04:42;98398.51;;;18.28;100.00
34921;BME280;21128;50.016;20.002;2022-08-14T03:07:08;98395.23;;;18.26;100.00
34921;BME280;21128;50.016;20.002;2022-08-14T03:09:36;98399.95;;;18.24;100.00
34921;BME280;21128;50.016;20.002;2022-08-14T03:12:05;98394.63;;;18.24;100.00
34921;BME280;21128;50.016;20.002;2022-08-14T03:14:32;98404.62;;;18.22;100.00
34921;BME280;21128;50.016;20.002;2022-08-14T03:17:03;98397.88;;;18.20;100.00
34921;BME280;21128;50.016;20.002;2022-08-14T03:19:30;98393.59;;;18.19;100.00
34921;BME280;21128;50.016;20.002;2022-08-14T03:21:57;98396.24;;;18.19;100.00
34921;BME280;21128;50.016;20.002;2022-08-14T03:24:24;98394.81;;;18.16;100.00
34921;BME280;21128;50.016;20.002;2022-08-14T03:26:52;98397.48;;;18.16;100.00
34921;BME280;21128;50.016;20.002;2022-08-14T03:29:21;98388.03;;;18.14;100.00
34921;BME280;21128;50.016;20.002;2022-08-14T03:31:48;98388.86;;;18.14;100.00
34921;BME280;21128;50.016;20.002;2022-08-14T03:34:17;98388.03;;;18.14;100.00
34921;BME280;21128;50.016;20.002;2022-08-14T03:36:44;98380.88;;;18.14;100.00
34921;BME280;21128;50.016;20.002;2022-08-14T03:39:11;98393.79;;;18.17;100.00
34921;BME280;21128;50.016;20.002;2022-08-14T03:41:38;98398.08;;;18.18;100.00
34921;BME280;21128;50.016;20.002;2022-08-14T03:44:06;98397.06;;;18.19;100.00
34921;BME280;21128;50.016;20.002;2022-08-14T03:46:39;98390.48;;;18.15;100.00
34921;BME280;21128;50.016;20.002;2022-08-14T03:49:08;98392.16;;;18.16;100.00
34921;BME280;21128;50.016;20.002;2022-08-14T03:51:35;98396.62;;;18.16;100.00
34921;BME280;21128;50.016;20.002;2022-08-14T03:54:09;98395.63;;;18.17;100.00
34921;BME280;21128;50.016;20.002;2022-08-14T03:56:38;98397.48;;;18.16;100.00
34921;BME280;21128;50.016;20.002;2022-08-14T03:59:10;98401.77;;;18.17;100.00
34921;BME280;21128;50.016;20.002;2022-08-14T04:01:39;98391.13;;;18.17;100.00
34921;BME280;21128;50.016;20.002;2022-08-14T04:04:13;98395.63;;;18.17;100.00
34921;BME280;21128;50.016;20.002;2022-08-14T04:06:40;98397.06;;;18.19;100.00
34921;BME280;21128;50.016;20.002;2022-08-14T04:09:06;98395.02;;;18.21;100.00
34921;BME280;21128;50.016;20.002;2022-08-14T04:11:34;98396.44;;;18.24;100.00
34921;BME280;21128;50.016;20.002;2022-08-14T04:14:05;98382.97;;;18.25;100.00
34921;BME280;21128;50.016;20.002;2022-08-14T04:16:32;98387.26;;;18.26;100.00
34921;BME280;21128;50.016;20.002;2022-08-14T04:19:02;98392.58;;;18.26;100.00
34921;BME280;21128;50.016;20.002;2022-08-14T04:21:30;98392.58;;;18.26;100.00
34921;BME280;21128;50.016;20.002;2022-08-14T04:23:59;98394.22;;;18.27;100.00
34921;BME280;21128;50.016;20.002;2022-08-14T04:26:31;98394.22;;;18.27;100.00
34921;BME280;21128;50.016;20.002;2022-08-14T04:28:58;98392.77;;;18.32;100.00
34921;BME280;21128;50.016;20.002;2022-08-14T04:31:33;98397.06;;;18.33;100.00
34921;BME280;21128;50.016;20.002;2022-08-14T04:34:00;98395.87;;;18.35;100.00
34921;BME280;21128;50.016;20.002;2022-08-14T04:36:30;98397.91;;;18.40;100.00
34921;BME280;21128;50.016;20.002;2022-08-14T04:38:57;98391.55;;;18.41;100.00
34921;BME280;21128;50.016;20.002;2022-08-14T04:41:43;98391.55;;;18.41;100.00
34921;BME280;21128;50.016;20.002;2022-08-14T04:44:28;98393.22;;;18.42;100.00
34921;BME280;21128;50.016;20.002;2022-08-14T04:46:55;98392.20;;;18.43;100.00
34921;BME280;21128;50.016;20.002;2022-08-14T04:49:41;98389.33;;;18.44;100.00
34921;BME280;21128;50.016;20.002;2022-08-14T04:52:20;98390.14;;;18.45;100.00
34921;BME280;21128;50.016;20.002;2022-08-14T04:54:47;98390.14;;;18.45;100.00
34921;BME280;21128;50.016;20.002;2022-08-14T04:57:13;98382.77;;;18.47;100.00
34921;BME280;21128;50.016;20.002;2022-08-14T04:59:40;98387.06;;;18.48;100.00
34921;BME280;21128;50.016;20.002;2022-08-14T05:02:07;98384.41;;;18.48;100.00
34921;BME280;21128;50.016;20.002;2022-08-14T05:04:40;98385.22;;;18.48;100.00
34921;BME280;21128;50.016;20.002;2022-08-14T05:07:07;98391.57;;;18.47;100.00
34921;BME280;21128;50.016;20.002;2022-08-14T05:09:33;98384.83;;;18.45;100.00
34921;BME280;21128;50.016;20.002;2022-08-14T05:12:00;98384.41;;;18.48;100.00
34921;BME280;21128;50.016;20.002;2022-08-14T05:14:33;98375.61;;;18.47;100.00
34921;BME280;21128;50.016;20.002;2022-08-14T05:17:00;98381.14;;;18.46;100.00
34921;BME280;21128;50.016;20.002;2022-08-14T05:19:27;98379.50;;;18.45;100.00
34921;BME280;21128;50.016;20.002;2022-08-14T05:21:53;98384.83;;;18.45;100.00
34921;BME280;21128;50.016;20.002;2022-08-14T05:24:24;98383.19;;;18.44;100.00
34921;BME280;21128;50.016;20.002;2022-08-14T05:26:51;98377.87;;;18.44;100.00
34921;BME280;21128;50.016;20.002;2022-08-14T05:29:18;98381.34;;;18.44;100.00
34921;BME280;21128;50.016;20.002;2022-08-14T05:31:44;98370.28;;;18.47;100.00
34921;BME280;21128;50.016;20.002;2022-08-14T05:34:11;98378.88;;;18.49;100.00
34921;BME280;21128;50.016;20.002;2022-08-14T05:36:39;98373.16;;;18.52;100.00
34921;BME280;21128;50.016;20.002;2022-08-14T05:39:06;98372.75;;;18.55;100.00
34921;BME280;21128;50.016;20.002;2022-08-14T05:41:33;98378.67;;;18.57;100.00
34921;BME280;21128;50.016;20.002;2022-08-14T05:44:00;98372.15;;;18.60;100.00
34921;BME280;21128;50.016;20.002;2022-08-14T05:46:27;98367.22;;;18.64;100.00
34921;BME280;21128;50.016;20.002;2022-08-14T05:48:56;98370.34;;;18.67;100.00
34921;BME280;21128;50.016;20.002;2022-08-14T05:51:25;98366.84;;;18.73;100.00
34921;BME280;21128;50.016;20.002;2022-08-14T05:53:58;98374.61;;;18.81;100.00
34921;BME280;21128;50.016;20.002;2022-08-14T05:56:25;98377.88;;;18.90;100.00
34921;BME280;21128;50.016;20.002;2022-08-14T05:58:53;98377.45;;;19.00;100.00
34921;BME280;21128;50.016;20.002;2022-08-14T06:01:20;98380.93;;;19.07;100.00
34921;BME280;21128;50.016;20.002;2022-08-14T06:03:53;98381.14;;;19.12;100.00
34921;BME280;21128;50.016;20.002;2022-08-14T06:06:33;98383.16;;;19.23;100.00
34921;BME280;21128;50.016;20.002;2022-08-14T06:09:00;98381.52;;;19.29;100.00
34921;BME280;21128;50.016;20.002;2022-08-14T06:11:38;98381.72;;;19.34;100.00
34921;BME280;21128;50.016;20.002;2022-08-14T06:14:05;98380.04;;;19.39;100.00
34921;BME280;21128;50.016;20.002;2022-08-14T06:16:32;98382.69;;;19.46;100.00
34921;BME280;21128;50.016;20.002;2022-08-14T06:19:01;98383.70;;;19.52;100.00
34921;BME280;21128;50.016;20.002;2022-08-14T06:21:28;98384.52;;;19.52;100.00
34921;BME280;21128;50.016;20.002;2022-08-14T06:23:55;98384.73;;;19.51;100.00
34921;BME280;21128;50.016;20.002;2022-08-14T06:26:28;98391.50;;;19.47;100.00
34921;BME280;21128;50.016;20.002;2022-08-14T06:28:55;98389.27;;;19.44;100.00
34921;BME280;21128;50.016;20.002;2022-08-14T06:31:21;98392.33;;;19.40;100.00
34921;BME280;21128;50.016;20.002;2022-08-14T06:33:48;98394.99;;;19.40;100.00
34921;BME280;21128;50.016;20.002;2022-08-14T06:36:16;98392.55;;;19.39;100.00
34921;BME280;21128;50.016;20.002;2022-08-14T06:38:44;98390.70;;;19.39;100.00
34921;BME280;21128;50.016;20.002;2022-08-14T06:41:11;98384.75;;;19.44;100.00
34921;BME280;21128;50.016;20.002;2022-08-14T06:43:38;98380.02;;;19.53;100.00
34921;BME280;21128;50.016;20.002;2022-08-14T06:46:05;98371.98;;;19.66;100.00
34921;BME280;21128;50.016;20.002;2022-08-14T06:48:38;98376.83;;;19.82;100.00
34921;BME280;21128;50.016;20.002;2022-08-14T06:51:05;98372.48;;;19.94;100.00
34921;BME280;21128;50.016;20.002;2022-08-14T06:53:38;98378.94;;;20.12;100.00
34921;BME280;21128;50.016;20.002;2022-08-14T06:56:05;98376.84;;;20.20;100.00
34921;BME280;21128;50.016;20.002;2022-08-14T06:58:32;98371.25;;;20.29;100.00
34921;BME280;21128;50.016;20.002;2022-08-14T07:00:59;98373.25;;;20.33;100.00
34921;BME280;21128;50.016;20.002;2022-08-14T07:03:45;98378.55;;;20.40;100.00
34921;BME280;21128;50.016;20.002;2022-08-14T07:06:30;98381.80;;;20.48;100.00
34921;BME280;21128;50.016;20.002;2022-08-14T07:09:04;98375.55;;;20.61;100.00
34921;BME280;21128;50.016;20.002;2022-08-14T07:11:31;98377.73;;;20.71;100.00
34921;BME280;21128;50.016;20.002;2022-08-14T07:13:58;98365.15;;;20.78;100.00
34921;BME280;21128;50.016;20.002;2022-08-14T07:16:25;98370.21;;;20.86;100.00
34921;BME280;21128;50.016;20.002;2022-08-14T07:18:52;98366.22;;;20.95;100.00
34921;BME280;21128;50.016;20.002;2022-08-14T07:21:18;98374.14;;;21.02;100.00
34921;BME280;21128;50.016;20.002;2022-08-14T07:23:46;98367.93;;;21.08;100.00
34921;BME280;21128;50.016;20.002;2022-08-14T07:26:13;98374.84;;;21.16;100.00
34921;BME280;21128;50.016;20.002;2022-08-14T07:28:40;98368.03;;;21.20;100.00
34921;BME280;21128;50.016;20.002;2022-08-14T07:31:13;98378.27;;;21.23;100.00
34921;BME280;21128;50.016;20.002;2022-08-14T07:33:45;98378.46;;;21.28;100.00
34921;BME280;21128;50.016;20.002;2022-08-14T07:36:15;98380.45;;;21.32;100.00
34921;BME280;21128;50.016;20.002;2022-08-14T07:38:42;98383.71;;;21.34;100.00
34921;BME280;21128;50.016;20.002;2022-08-14T07:41:11;98379.80;;;21.37;100.00
34921;BME280;21128;50.016;20.002;2022-08-14T07:43:40;98389.22;;;21.40;100.00
34921;BME280;21128;50.016;20.002;2022-08-14T07:46:07;98392.94;;;21.39;100.00
34921;BME280;21128;50.016;20.002;2022-08-14T07:48:40;98389.45;;;21.38;100.00
34921;BME280;21128;50.016;20.002;2022-08-14T07:51:18;98397.30;;;21.33;100.00
34921;BME280;21128;50.016;20.002;2022-08-14T07:53:59;98393.03;;;21.25;100.00
34921;BME280;21128;50.016;20.002;2022-08-14T07:56:25;98398.44;;;21.19;100.00
34921;BME280;21128;50.016;20.002;2022-08-14T07:58:53;98393.47;;;21.04;100.00
34921;BME280;21128;50.016;20.002;2022-08-14T08:01:20;98399.14;;;20.89;100.00
34921;BME280;21128;50.016;20.002;2022-08-14T08:03:48;98393.03;;;20.82;100.00
34921;BME280;21128;50.016;20.002;2022-08-14T08:06:22;98395.55;;;20.77;100.00
34921;BME280;21128;50.016;20.002;2022-08-14T08:08:50;98389.77;;;20.80;100.00
34921;BME280;21128;50.016;20.002;2022-08-14T08:11:19;98387.09;;;20.80;100.00
34921;BME280;21128;50.016;20.002;2022-08-14T08:13:45;98386.51;;;20.78;100.00
34921;BME280;21128;50.016;20.002;2022-08-14T08:16:13;98389.55;;;20.82;100.00
34921;BME280;21128;50.016;20.002;2022-08-14T08:18:40;98380.89;;;20.86;100.00
34921;BME280;21128;50.016;20.002;2022-08-14T08:21:06;98383.28;;;20.94;100.00
34921;BME280;21128;50.016;20.002;2022-08-14T08:23:33;98384.47;;;20.98;100.00
34921;BME280;21128;50.016;20.002;2022-08-14T08:26:00;98386.27;;;21.04;100.00
34921;BME280;21128;50.016;20.002;2022-08-14T08:28:27;98388.88;;;21.11;100.00
34921;BME280;21128;50.016;20.002;2022-08-14T08:31:04;98385.30;;;21.17;100.00
34921;BME280;21128;50.016;20.002;2022-08-14T08:33:33;98389.31;;;21.26;100.00
34921;BME280;21128;50.016;20.002;2022-08-14T08:36:08;98382.83;;;21.41;100.00
34921;BME280;21128;50.016;20.002;2022-08-14T08:38:38;98385.72;;;21.57;100.00
34921;BME280;21128;50.016;20.002;2022-08-14T08:41:05;98380.13;;;21.77;100.00
34921;BME280;21128;50.016;20.002;2022-08-14T08:43:34;98375.81;;;21.95;100.00
34921;BME280;21128;50.016;20.002;2022-08-14T08:46:07;98379.28;;;22.13;100.00
34921;BME280;21128;50.016;20.002;2022-08-14T08:48:52;98371.86;;;22.27;100.00
34921;BME280;21128;50.016;20.002;2022-08-14T08:51:28;98367.00;;;22.36;100.00
34921;BME280;21128;50.016;20.002;2022-08-14T08:54:11;98368.67;;;22.48;100.00
34921;BME280;21128;50.016;20.002;2022-08-14T08:59:20;98377.76;;;22.59;100.00
34921;BME280;21128;50.016;20.002;2022-08-14T09:01:58;98375.22;;;22.64;100.00
34921;BME280;21128;50.016;20.002;2022-08-14T09:04:29;98378.13;;;22.74;100.00
34921;BME280;21128;50.016;20.002;2022-08-14T09:07:02;98376.41;;;22.80;100.00
34921;BME280;21128;50.016;20.002;2022-08-14T09:09:30;98375.61;;;22.91;100.00
34921;BME280;21128;50.016;20.002;2022-08-14T09:12:04;98375.03;;;23.01;100.00
34921;BME280;21128;50.016;20.002;2022-08-14T09:14:32;98373.97;;;23.02;100.00
34921;BME280;21128;50.016;20.002;2022-08-14T09:17:01;98372.34;;;23.01;100.00
34921;BME280;21128;50.016;20.002;2022-08-14T09:19:28;98370.14;;;22.98;100.00
34921;BME280;21128;50.016;20.002;2022-08-14T09:21:55;98375.14;;;22.94;100.00
34921;BME280;21128;50.016;20.002;2022-08-14T09:24:22;98376.31;;;22.98;100.00
34921;BME280;21128;50.016;20.002;2022-08-14T09:26:50;98360.94;;;23.06;100.00
34921;BME280;21128;50.016;20.002;2022-08-14T09:29:18;98370.14;;;23.21;100.00
34921;BME280;21128;50.016;20.002;2022-08-14T09:31:48;98368.97;;;23.29;100.00
34921;BME280;21128;50.016;20.002;2022-08-14T09:34:32;98367.77;;;23.37;100.00
34921;BME280;21128;50.016;20.002;2022-08-14T09:40:11;98368.45;;;23.55;100.00
34921;BME280;21128;50.016;20.002;2022-08-14T09:45:32;98370.87;;;23.69;100.00
34921;BME280;21128;50.016;20.002;2022-08-14T09:48:00;98371.44;;;23.71;100.00
34921;BME280;21128;50.016;20.002;2022-08-14T09:50:48;98379.36;;;23.77;100.00
34921;BME280;21128;50.016;20.002;2022-08-14T09:53:35;98368.55;;;23.72;100.00
34921;BME280;21128;50.016;20.002;2022-08-14T09:56:03;98370.74;;;23.75;100.00
34921;BME280;21128;50.016;20.002;2022-08-14T09:58:40;98368.50;;;23.84;100.00
34921;BME280;21128;50.016;20.002;2022-08-14T10:01:11;98361.45;;;23.95;100.00
34921;BME280;21128;50.016;20.002;2022-08-14T10:03:52;98373.03;;;24.12;100.00
34921;BME280;21128;50.016;20.002;2022-08-14T10:06:21;98367.28;;;24.49;100.00
34921;BME280;21128;50.016;20.002;2022-08-14T10:09:04;98364.24;;;24.95;100.00
34921;BME280;21128;50.016;20.002;2022-08-14T10:11:33;98363.69;;;25.49;100.00
34921;BME280;21128;50.016;20.002;2022-08-14T10:14:12;98354.17;;;25.85;100.00
34921;BME280;21128;50.016;20.002;2022-08-14T10:16:44;98349.87;;;26.11;99.41
34921;BME280;21128;50.016;20.002;2022-08-14T10:19:14;98357.55;;;26.51;99.40
34921;BME280;21128;50.016;20.002;2022-08-14T10:21:59;98342.59;;;26.71;97.17
34921;BME280;21128;50.016;20.002;2022-08-14T10:24:39;98343.80;;;26.90;95.27
34921;BME280;21128;50.016;20.002;2022-08-14T10:27:32;98339.03;;;26.65;92.77
34921;BME280;21128;50.016;20.002;2022-08-14T10:29:59;98338.63;;;26.46;92.90
34921;BME280;21128;50.016;20.002;2022-08-14T10:32:27;98338.56;;;26.73;93.11
34921;BME280;21128;50.016;20.002;2022-08-14T10:35:07;98336.42;;;27.12;92.62
34921;BME280;21128;50.016;20.002;2022-08-14T10:37:37;98344.11;;;27.41;91.20
34921;BME280;21128;50.016;20.002;2022-08-14T10:40:06;98350.20;;;27.73;90.58
34921;BME280;21128;50.016;20.002;2022-08-14T10:42:34;98347.03;;;27.97;89.75
34921;BME280;21128;50.016;20.002;2022-08-14T10:45:03;98344.39;;;28.17;89.25
34921;BME280;21128;50.016;20.002;2022-08-14T10:47:34;98346.53;;;28.10;88.20
34921;BME280;21128;50.016;20.002;2022-08-14T10:50:02;98348.67;;;28.08;87.77
34921;BME280;21128;50.016;20.002;2022-08-14T10:52:31;98345.44;;;28.16;86.86
34921;BME280;21128;50.016;20.002;2022-08-14T10:55:16;98341.67;;;28.22;84.72
34921;BME280;21128;50.016;20.002;2022-08-14T10:57:52;98345.70;;;28.04;84.70
34921;BME280;21128;50.016;20.002;2022-08-14T11:00:21;98342.73;;;28.06;85.04
34921;BME280;21128;50.016;20.002;2022-08-14T11:03:01;98344.98;;;28.45;85.12
34921;BME280;21128;50.016;20.002;2022-08-14T11:05:47;98346.05;;;28.90;85.22
34921;BME280;21128;50.016;20.002;2022-08-14T11:08:18;98339.41;;;29.41;84.49
34921;BME280;21128;50.016;20.002;2022-08-14T11:10:58;98343.34;;;29.80;83.13
34921;BME280;21128;50.016;20.002;2022-08-14T11:13:29;98344.39;;;29.84;81.73
34921;BME280;21128;50.016;20.002;2022-08-14T11:16:03;98343.70;;;29.63;80.46
34921;BME280;21128;50.016;20.002;2022-08-14T11:18:36;98338.81;;;29.65;80.25
34921;BME280;21128;50.016;20.002;2022-08-14T11:21:04;98336.09;;;29.65;79.59
34921;BME280;21128;50.016;20.002;2022-08-14T11:23:35;98341.56;;;29.55;79.45
34921;BME280;21128;50.016;20.002;2022-08-14T11:26:06;98344.57;;;29.43;79.40
34921;BME280;21128;50.016;20.002;2022-08-14T11:28:39;98340.62;;;29.10;78.72
34921;BME280;21128;50.016;20.002;2022-08-14T11:31:07;98339.02;;;28.78;78.59
34921;BME280;21128;50.016;20.002;2022-08-14T11:33:34;98339.56;;;28.29;78.57
34921;BME280;21128;50.016;20.002;2022-08-14T11:36:05;98346.20;;;27.86;79.79
34921;BME280;21128;50.016;20.002;2022-08-14T11:38:40;98346.27;;;27.39;80.04
34921;BME280;21128;50.016;20.002;2022-08-14T11:41:14;98348.78;;;27.03;81.49
34921;BME280;21128;50.016;20.002;2022-08-14T11:43:43;98342.31;;;26.67;82.60
34921;BME280;21128;50.016;20.002;2022-08-14T11:46:10;98348.19;;;26.32;83.40
34921;BME280;21128;50.016;20.002;2022-08-14T11:48:50;98354.80;;;25.92;84.48
34921;BME280;21128;50.016;20.002;2022-08-14T11:51:24;98366.86;;;25.68;85.21
34921;BME280;21128;50.016;20.002;2022-08-14T11:54:05;98365.78;;;25.47;85.96
34921;BME280;21128;50.016;20.002;2022-08-14T11:56:36;98364.59;;;25.16;86.93
34921;BME280;21128;50.016;20.002;2022-08-14T11:59:06;98363.94;;;24.92;88.11
34921;BME280;21128;50.016;20.002;2022-08-14T12:01:34;98360.34;;;24.86;88.74
34921;BME280;21128;50.016;20.002;2022-08-14T12:04:10;98354.25;;;24.91;88.96
34921;BME280;21128;50.016;20.002;2022-08-14T12:06:53;98342.49;;;24.97;89.46
34921;BME280;21128;50.016;20.002;2022-08-14T12:09:32;98347.64;;;25.15;90.07
34921;BME280;21128;50.016;20.002;2022-08-14T12:12:11;98350.45;;;25.47;90.12
34921;BME280;21128;50.016;20.002;2022-08-14T12:14:56;98340.91;;;25.78;89.81
34921;BME280;21128;50.016;20.002;2022-08-14T12:17:23;98334.78;;;25.83;88.47
34921;BME280;21128;50.016;20.002;2022-08-14T12:19:53;98339.03;;;26.06;88.45
34921;BME280;21128;50.016;20.002;2022-08-14T12:22:34;98330.81;;;26.18;88.04
34921;BME280;21128;50.016;20.002;2022-08-14T12:25:04;98329.91;;;26.66;88.28
34921;BME280;21128;50.016;20.002;2022-08-14T12:27:41;98332.15;;;27.16;86.24
34921;BME280;21128;50.016;20.002;2022-08-14T12:30:12;98331.25;;;27.63;85.41
34921;BME280;21128;50.016;20.002;2022-08-14T12:32:44;98326.53;;;28.06;84.42
34921;BME280;21128;50.016;20.002;2022-08-14T12:35:13;98325.78;;;28.46;83.86
34921;BME280;21128;50.016;20.002;2022-08-14T12:37:47;98326.55;;;28.82;82.14
34921;BME280;21128;50.016;20.002;2022-08-14T12:40:16;98327.38;;;28.98;81.50
34921;BME280;21128;50.016;20.002;2022-08-14T12:42:49;98318.41;;;29.13;80.02
34921;BME280;21128;50.016;20.002;2022-08-14T12:45:30;98326.55;;;28.82;79.73
34921;BME280;21128;50.016;20.002;2022-08-14T12:48:00;98315.73;;;28.82;79.56
34921;BME280;21128;50.016;20.002;2022-08-14T12:50:35;98315.19;;;29.06;79.76
34921;BME280;21128;50.016;20.002;2022-08-14T12:53:10;98302.91;;;29.34;79.01
34921;BME280;21128;50.016;20.002;2022-08-14T12:55:45;98308.56;;;29.53;78.84
34921;BME280;21128;50.016;20.002;2022-08-14T12:58:19;98300.02;;;29.80;78.69
34921;BME280;21128;50.016;20.002;2022-08-14T13:00:47;98292.98;;;29.79;76.87
34921;BME280;21128;50.016;20.002;2022-08-14T13:03:25;98293.64;;;29.60;75.95
34921;BME280;21128;50.016;20.002;2022-08-14T13:05:53;98294.07;;;29.08;76.78
34921;BME280;21128;50.016;20.002;2022-08-14T13:08:20;98293.30;;;28.82;77.80
34921;BME280;21128;50.016;20.002;2022-08-14T13:10:49;98292.45;;;29.07;78.02
34921;BME280;21128;50.016;20.002;2022-08-14T13:13:17;98288.14;;;29.01;76.57
34921;BME280;21128;50.016;20.002;2022-08-14T13:15:48;98287.61;;;29.04;77.76
34921;BME280;21128;50.016;20.002;2022-08-14T13:18:24;98280.03;;;29.01;76.67